createdAt,value
2023-02-25T00:01:10.569Z,5.78
2023-02-25T00:03:37.900Z,5.72
2023-02-25T00:06:09.677Z,5.55
2023-02-25T00:08:36.778Z,5.30
2023-02-25T00:11:06.556Z,5.25
2023-02-25T00:13:35.632Z,6.25
2023-02-25T00:16:06.333Z,5.97
2023-02-25T00:18:33.423Z,5.53
2023-02-25T00:21:04.608Z,6.35
2023-02-25T00:23:31.741Z,5.55
2023-02-25T00:26:03.557Z,6.22
2023-02-25T00:28:30.359Z,4.60
2023-02-25T00:30:57.240Z,3.60
2023-02-25T00:33:24.076Z,2.25
2023-02-25T00:35:50.805Z,2.38
2023-02-25T00:38:18.093Z,2.00
2023-02-25T00:40:45.025Z,1.90
2023-02-25T00:43:11.948Z,2.17
2023-02-25T00:45:39.685Z,2.90
2023-02-25T00:48:07.795Z,5.07
2023-02-25T00:50:35.371Z,7.80
2023-02-25T00:53:02.263Z,8.70
2023-02-25T00:55:29.044Z,10.40
2023-02-25T00:57:55.887Z,11.90
2023-02-25T01:00:22.735Z,16.63
2023-02-25T01:02:49.574Z,20.50
2023-02-25T01:05:16.414Z,22.25
2023-02-25T01:07:45.523Z,21.20
2023-02-25T01:10:12.256Z,21.20
2023-02-25T01:12:39.008Z,21.30
2023-02-25T01:15:06.134Z,19.38
2023-02-25T01:17:32.883Z,21.92
2023-02-25T01:19:59.703Z,19.65
2023-02-25T01:22:26.493Z,21.38
2023-02-25T01:24:55.420Z,17.35
2023-02-25T01:27:22.230Z,9.82
2023-02-25T01:29:48.941Z,5.82
2023-02-25T01:32:16.295Z,4.65
2023-02-25T01:34:43.125Z,4.07
2023-02-25T01:37:10.175Z,4.50
2023-02-25T01:39:36.951Z,4.20
2023-02-25T01:42:13.575Z,4.20
2023-02-25T01:45:18.729Z,5.95
2023-02-25T01:47:50.724Z,6.03
2023-02-25T01:50:22.846Z,7.80
2023-02-25T01:52:49.892Z,10.30
2023-02-25T01:55:16.949Z,11.18
2023-02-25T01:57:44.037Z,10.70
2023-02-25T02:00:14.199Z,10.10
2023-02-25T02:02:42.020Z,7.72
2023-02-25T02:05:08.921Z,7.53
2023-02-25T02:07:35.717Z,5.70
2023-02-25T02:10:02.643Z,6.03
2023-02-25T02:12:33.956Z,5.93
2023-02-25T02:15:05.784Z,5.32
2023-02-25T02:17:35.491Z,6.00
2023-02-25T02:20:39.116Z,5.38
2023-02-25T02:23:36.495Z,5.80
2023-02-25T02:26:22.119Z,4.82
2023-02-25T02:29:11.383Z,5.00
2023-02-25T02:32:00.456Z,6.07
2023-02-25T02:34:55.032Z,6.13
2023-02-25T02:37:45.719Z,6.43
2023-02-25T02:40:55.278Z,7.10
2023-02-25T02:43:28.189Z,6.18
2023-02-25T02:46:00.913Z,6.32
2023-02-25T02:48:34.911Z,6.28
2023-02-25T02:51:06.746Z,6.72
2023-02-25T02:53:42.399Z,6.90
2023-02-25T02:58:43.287Z,6.43
2023-02-25T03:01:17.886Z,6.18
2023-02-25T03:03:47.717Z,6.15
2023-02-25T03:06:29.832Z,6.45
2023-02-25T03:09:04.202Z,5.55
2023-02-25T03:11:31.190Z,5.55
2023-02-25T03:13:58.092Z,4.53
2023-02-25T03:16:51.576Z,4.32
2023-02-25T03:19:22.435Z,4.78
2023-02-25T03:21:54.550Z,4.32
2023-02-25T03:24:25.496Z,4.88
2023-02-25T03:26:53.382Z,4.45
2023-02-25T03:29:24.864Z,3.95
2023-02-25T03:32:02.336Z,4.53
2023-02-25T03:34:33.861Z,4.13
2023-02-25T03:37:08.223Z,4.38
2023-02-25T03:39:43.681Z,3.95
2023-02-25T03:42:13.680Z,3.65
2023-02-25T03:44:48.176Z,4.25
2023-02-25T03:47:17.914Z,5.45
2023-02-25T03:49:54.023Z,5.70
2023-02-25T03:52:23.781Z,5.32
2023-02-25T03:54:56.473Z,5.60
2023-02-25T03:57:25.411Z,5.13
2023-02-25T03:59:54.111Z,3.97
2023-02-25T04:02:22.613Z,4.35
2023-02-25T04:04:49.492Z,6.55
2023-02-25T04:07:16.351Z,6.03
2023-02-25T04:09:43.158Z,11.20
2023-02-25T04:12:10.121Z,7.88
2023-02-25T04:14:36.930Z,8.25
2023-02-25T04:17:03.768Z,4.78
2023-02-25T04:19:30.741Z,9.20
2023-02-25T04:21:59.001Z,8.88
2023-02-25T04:24:26.237Z,8.55
2023-02-25T04:26:53.126Z,7.78
2023-02-25T04:29:19.864Z,4.45
2023-02-25T04:31:46.822Z,3.42
2023-02-25T04:34:13.765Z,5.63
2023-02-25T04:36:40.747Z,4.10
2023-02-25T04:39:07.529Z,3.70
2023-02-25T04:41:36.283Z,3.05
2023-02-25T04:44:06.663Z,3.85
2023-02-25T04:46:35.450Z,4.28
2023-02-25T04:49:03.410Z,3.95
2023-02-25T04:51:30.354Z,3.95
2023-02-25T04:53:57.193Z,6.72
2023-02-25T04:56:24.192Z,9.10
2023-02-25T04:58:51.288Z,11.00
2023-02-25T05:01:24.210Z,9.63
2023-02-25T05:03:52.036Z,8.55
2023-02-25T05:06:18.825Z,5.05
2023-02-25T05:08:45.624Z,5.50
2023-02-25T05:11:12.356Z,5.63
2023-02-25T05:13:39.147Z,3.65
2023-02-25T05:16:08.798Z,3.25
2023-02-25T05:18:40.002Z,3.15
2023-02-25T05:21:11.919Z,2.90
2023-02-25T05:23:40.070Z,2.45
2023-02-25T05:26:07.293Z,2.38
2023-02-25T05:28:34.798Z,1.77
2023-02-25T05:31:08.796Z,1.55
2023-02-25T05:33:39.972Z,1.40
2023-02-25T05:36:11.295Z,1.63
2023-02-25T05:38:38.366Z,1.50
2023-02-25T05:41:05.795Z,1.85
2023-02-25T05:43:33.514Z,1.20
2023-02-25T05:46:00.996Z,1.20
2023-02-25T05:48:28.037Z,1.25
2023-02-25T05:51:04.124Z,1.45
2023-02-25T05:53:31.931Z,1.20
2023-02-25T05:55:58.929Z,1.50
2023-02-25T05:58:26.201Z,1.42
2023-02-25T06:00:53.128Z,1.48
2023-02-25T06:03:19.907Z,1.70
2023-02-25T06:05:48.010Z,1.75
2023-02-25T06:08:15.023Z,2.53
2023-02-25T06:10:42.044Z,2.50
2023-02-25T06:13:10.161Z,2.47
2023-02-25T06:15:38.911Z,2.75
2023-02-25T06:18:06.701Z,3.10
2023-02-25T06:20:34.254Z,4.00
2023-02-25T06:23:02.122Z,3.75
2023-02-25T06:25:28.963Z,3.33
2023-02-25T06:28:02.920Z,2.70
2023-02-25T06:30:30.755Z,2.80
2023-02-25T06:32:58.245Z,2.55
2023-02-25T06:35:25.365Z,2.78
2023-02-25T06:38:00.328Z,3.03
2023-02-25T06:40:27.888Z,2.15
2023-02-25T06:42:54.879Z,2.47
2023-02-25T06:45:21.712Z,2.22
2023-02-25T06:47:48.538Z,1.75
2023-02-25T06:50:15.604Z,1.60
2023-02-25T06:52:42.330Z,1.77
2023-02-25T06:55:10.314Z,1.70
2023-02-25T06:57:37.436Z,1.70
2023-02-25T07:00:05.452Z,1.70
2023-02-25T07:02:32.437Z,2.10
2023-02-25T07:04:59.418Z,2.28
2023-02-25T07:07:26.153Z,2.53
2023-02-25T07:09:52.994Z,2.10
2023-02-25T07:12:19.888Z,2.30
2023-02-25T07:14:46.634Z,2.38
2023-02-25T07:17:13.490Z,2.30
2023-02-25T07:19:40.261Z,2.47
2023-02-25T07:22:07.654Z,1.75
2023-02-25T07:24:34.523Z,1.85
2023-02-25T07:27:01.405Z,2.00
2023-02-25T07:29:28.142Z,1.80
2023-02-25T07:31:55.130Z,1.52
2023-02-25T07:34:22.023Z,1.90
2023-02-25T07:36:48.702Z,1.50
2023-02-25T07:39:15.794Z,1.60
2023-02-25T07:41:42.679Z,1.70
2023-02-25T07:44:09.501Z,1.50
2023-02-25T07:46:37.165Z,1.55
2023-02-25T07:49:03.926Z,1.83
2023-02-25T07:51:30.723Z,1.20
2023-02-25T07:53:58.209Z,1.50
2023-02-25T07:56:27.212Z,1.50
2023-02-25T07:58:54.093Z,1.30
2023-02-25T08:01:32.256Z,1.50
2023-02-25T08:04:06.480Z,1.75
2023-02-25T08:06:41.199Z,1.70
2023-02-25T08:09:09.976Z,1.95
2023-02-25T08:11:37.170Z,1.50
2023-02-25T08:14:04.122Z,1.23
2023-02-25T08:16:30.955Z,1.20
2023-02-25T08:18:58.209Z,1.27
2023-02-25T08:21:25.720Z,1.30
2023-02-25T08:23:54.061Z,1.20
2023-02-25T08:26:23.043Z,0.95
2023-02-25T08:28:51.323Z,1.48
2023-02-25T08:31:18.752Z,1.70
2023-02-25T08:33:47.558Z,0.93
2023-02-25T08:36:17.466Z,1.10
2023-02-25T08:38:44.640Z,1.40
2023-02-25T08:41:11.636Z,1.25
2023-02-25T08:43:41.684Z,2.10
2023-02-25T08:46:08.915Z,1.13
2023-02-25T08:48:36.110Z,1.13
2023-02-25T08:51:08.912Z,1.00
2023-02-25T08:53:37.152Z,1.20
2023-02-25T08:56:05.468Z,1.20
2023-02-25T08:58:32.847Z,1.42
2023-02-25T09:00:59.985Z,1.23
2023-02-25T09:03:27.057Z,1.20
2023-02-25T09:05:55.957Z,0.93
2023-02-25T09:08:22.942Z,1.02
2023-02-25T09:10:51.090Z,1.27
2023-02-25T09:13:18.146Z,1.20
2023-02-25T09:15:45.095Z,1.00
2023-02-25T09:18:12.027Z,0.98
2023-02-25T09:20:39.150Z,0.80
2023-02-25T09:23:05.936Z,1.15
2023-02-25T09:25:32.988Z,1.20
2023-02-25T09:27:59.840Z,1.02
2023-02-25T09:30:26.725Z,0.75
2023-02-25T09:32:53.846Z,1.10
2023-02-25T09:35:20.861Z,0.80
2023-02-25T09:37:48.648Z,1.10
2023-02-25T09:40:18.275Z,1.30
2023-02-25T09:42:48.253Z,1.08
2023-02-25T09:45:18.695Z,1.10
2023-02-25T09:47:49.725Z,1.00
2023-02-25T09:50:28.610Z,0.82
2023-02-25T09:53:14.049Z,1.00
2023-02-25T09:55:43.855Z,0.82
2023-02-25T09:58:21.446Z,0.90
2023-02-25T10:01:11.001Z,0.80
2023-02-25T10:03:59.413Z,1.10
2023-02-25T10:06:47.128Z,0.80
2023-02-25T10:09:13.919Z,0.90
2023-02-25T10:11:43.795Z,1.00
2023-02-25T10:14:29.577Z,0.90
2023-02-25T10:17:14.577Z,1.25
2023-02-25T10:20:03.710Z,0.70
2023-02-25T10:22:49.280Z,1.13
2023-02-25T10:25:18.438Z,1.20
2023-02-25T10:27:54.720Z,0.73
2023-02-25T10:30:31.115Z,0.90
2023-02-25T10:33:01.033Z,0.80
2023-02-25T10:35:32.026Z,0.90
2023-02-25T10:37:58.770Z,1.00
2023-02-25T10:40:26.607Z,0.90
2023-02-25T10:42:55.729Z,0.50
2023-02-25T10:45:29.378Z,0.60
2023-02-25T10:48:04.085Z,0.70
2023-02-25T10:50:44.454Z,0.65
2023-02-25T10:53:15.498Z,0.80
2023-02-25T10:55:49.846Z,0.75
2023-02-25T10:58:40.992Z,0.80
2023-02-25T11:01:19.895Z,0.88
2023-02-25T11:03:55.746Z,0.80
2023-02-25T11:06:37.820Z,0.80
2023-02-25T11:09:19.990Z,0.90
2023-02-25T11:11:54.612Z,0.80
2023-02-25T11:14:41.913Z,0.52
2023-02-25T11:17:18.854Z,0.60
2023-02-25T11:19:50.629Z,0.47
2023-02-25T11:22:31.957Z,0.65
2023-02-25T11:25:05.552Z,0.90
2023-02-25T11:27:39.269Z,0.65
2023-02-25T11:30:20.416Z,0.60
2023-02-25T11:32:54.302Z,1.33
2023-02-25T11:35:27.529Z,0.60
2023-02-25T11:37:55.674Z,0.90
2023-02-25T11:40:32.899Z,0.80
2023-02-25T11:43:05.528Z,0.88
2023-02-25T11:45:47.100Z,0.60
2023-02-25T11:48:23.871Z,0.70
2023-02-25T11:50:50.760Z,1.20
2023-02-25T11:56:31.750Z,0.60
2023-02-25T11:59:32.132Z,1.20
2023-02-25T12:02:23.550Z,0.93
2023-02-25T12:05:23.471Z,0.52
2023-02-25T12:08:13.652Z,0.38
2023-02-25T12:10:58.968Z,0.43
2023-02-25T12:13:51.540Z,0.47
2023-02-25T12:16:55.232Z,0.75
2023-02-25T12:19:28.263Z,1.00
2023-02-25T12:22:40.325Z,0.95
2023-02-25T12:25:28.333Z,0.95
2023-02-25T12:28:27.146Z,1.20
2023-02-25T12:31:14.842Z,1.17
2023-02-25T12:33:59.847Z,1.52
2023-02-25T12:36:44.540Z,1.13
2023-02-25T12:39:19.350Z,5.05
2023-02-25T12:41:59.995Z,1.50
2023-02-25T12:44:44.420Z,1.20
2023-02-25T12:47:29.301Z,1.35
2023-02-25T12:50:20.012Z,1.17
2023-02-25T12:52:58.967Z,1.20
2023-02-25T12:55:52.740Z,0.93
2023-02-25T12:58:30.481Z,1.25
2023-02-25T13:01:23.672Z,1.08
2023-02-25T13:03:56.277Z,0.98
2023-02-25T13:06:35.202Z,1.30
2023-02-25T13:09:26.545Z,0.82
2023-02-25T13:12:13.070Z,1.20
2023-02-25T13:14:55.279Z,1.10
2023-02-25T13:17:46.899Z,1.00
2023-02-25T13:20:26.945Z,0.98
2023-02-25T13:23:06.562Z,1.48
2023-02-25T13:25:56.909Z,1.20
2023-02-25T13:28:55.749Z,1.35
2023-02-25T13:31:55.470Z,0.85
2023-02-25T13:34:59.620Z,0.93
2023-02-25T13:38:00.423Z,0.82
2023-02-25T13:41:03.402Z,0.80
2023-02-25T13:43:51.326Z,1.20
2023-02-25T13:46:43.835Z,1.30
2023-02-25T13:49:16.712Z,2.10
2023-02-25T13:51:58.335Z,1.20
2023-02-25T13:54:34.115Z,1.35
2023-02-25T13:57:19.429Z,1.58
2023-02-25T14:00:01.093Z,1.20
2023-02-25T14:03:03.131Z,1.05
2023-02-25T14:05:50.213Z,1.30
2023-02-25T14:08:22.820Z,1.30
2023-02-25T14:11:48.652Z,1.60
2023-02-25T14:14:52.057Z,1.20
2023-02-25T14:17:46.453Z,1.20
2023-02-25T14:20:21.769Z,1.50
2023-02-25T14:23:16.264Z,1.65
2023-02-25T14:26:18.486Z,1.25
2023-02-25T14:29:12.111Z,1.35
2023-02-25T14:32:09.100Z,1.30
2023-02-25T14:35:05.141Z,1.10
2023-02-25T14:37:31.933Z,0.90
2023-02-25T14:40:01.486Z,0.95
2023-02-25T14:43:05.121Z,1.00
2023-02-25T14:45:36.126Z,1.13
2023-02-25T14:48:12.399Z,0.93
2023-02-25T14:51:05.469Z,1.67
2023-02-25T14:53:53.248Z,1.30
2023-02-25T14:56:46.495Z,1.40
2023-02-25T14:59:37.498Z,1.50
2023-02-25T15:02:19.366Z,1.55
2023-02-25T15:05:23.655Z,1.10
2023-02-25T15:08:15.174Z,1.60
2023-02-25T15:11:10.472Z,1.55
2023-02-25T15:13:56.077Z,1.38
2023-02-25T15:16:41.643Z,1.55
2023-02-25T15:19:22.412Z,1.20
2023-02-25T15:21:49.670Z,0.80
2023-02-25T15:24:37.645Z,1.20
2023-02-25T15:27:36.840Z,0.95
2023-02-25T15:30:07.993Z,0.70
2023-02-25T15:32:57.158Z,1.13
2023-02-25T15:35:50.033Z,1.10
2023-02-25T15:38:22.744Z,1.08
2023-02-25T15:40:52.565Z,1.05
2023-02-25T15:43:19.234Z,0.98
2023-02-25T15:45:48.972Z,1.00
2023-02-25T15:48:18.647Z,1.00
2023-02-25T15:50:45.341Z,1.67
2023-02-25T15:53:34.764Z,1.75
2023-02-25T15:56:04.775Z,2.83
2023-02-25T15:58:32.040Z,2.92
2023-02-25T16:01:08.038Z,2.08
2023-02-25T16:03:34.984Z,2.13
2023-02-25T16:06:04.836Z,1.17
2023-02-25T16:08:52.535Z,1.70
2023-02-25T16:11:33.634Z,1.30
2023-02-25T16:14:15.440Z,1.30
2023-02-25T16:17:06.289Z,1.30
2023-02-25T16:19:37.402Z,1.45
2023-02-25T16:22:11.807Z,1.42
2023-02-25T16:24:43.018Z,1.42
2023-02-25T16:27:25.564Z,1.55
2023-02-25T16:30:36.654Z,1.45
2023-02-25T16:33:32.185Z,1.77
2023-02-25T16:36:23.977Z,1.40
2023-02-25T16:38:56.517Z,1.30
2023-02-25T16:41:30.308Z,1.50
2023-02-25T16:44:03.657Z,1.13
2023-02-25T16:46:39.519Z,1.38
2023-02-25T16:49:17.718Z,1.00
2023-02-25T16:51:46.047Z,1.40
2023-02-25T16:54:22.614Z,1.58
2023-02-25T16:56:54.222Z,1.20
2023-02-25T16:59:23.106Z,1.50
2023-02-25T17:01:58.608Z,1.50
2023-02-25T17:04:32.328Z,1.40
2023-02-25T17:07:05.345Z,1.85
2023-02-25T17:09:32.246Z,1.23
2023-02-25T17:12:01.016Z,1.88
2023-02-25T17:14:29.757Z,1.50
2023-02-25T17:16:57.530Z,1.55
2023-02-25T17:19:25.124Z,1.50
2023-02-25T17:21:58.591Z,1.70
2023-02-25T17:24:31.077Z,1.50
2023-02-25T17:26:58.202Z,1.20
2023-02-25T17:29:34.511Z,1.50
2023-02-25T17:32:25.273Z,1.63
2023-02-25T17:34:55.494Z,1.65
2023-02-25T17:37:25.690Z,1.80
2023-02-25T17:39:53.169Z,1.30
2023-02-25T17:42:36.042Z,1.75
2023-02-25T17:45:05.506Z,1.70
2023-02-25T17:47:34.999Z,2.30
2023-02-25T17:50:23.105Z,1.70
2023-02-25T17:52:49.980Z,1.63
2023-02-25T17:55:43.187Z,1.30
2023-02-25T17:58:23.294Z,1.40
2023-02-25T18:01:01.111Z,1.58
2023-02-25T18:03:28.403Z,1.58
2023-02-25T18:05:57.635Z,1.75
2023-02-25T18:08:26.275Z,1.63
2023-02-25T18:11:02.948Z,2.13
2023-02-25T18:13:37.357Z,1.80
2023-02-25T18:16:22.916Z,1.80
2023-02-25T18:18:51.652Z,2.30
2023-02-25T18:21:18.658Z,2.50
2023-02-25T18:23:46.747Z,2.40
2023-02-25T18:26:26.546Z,2.85
2023-02-25T18:28:55.888Z,3.00
2023-02-25T18:31:22.765Z,3.53
2023-02-25T18:33:49.881Z,3.45
2023-02-25T18:36:29.844Z,3.10
2023-02-25T18:39:02.570Z,3.45
2023-02-25T18:41:29.392Z,3.75
2023-02-25T18:43:56.134Z,3.17
2023-02-25T18:46:23.099Z,3.83
2023-02-25T18:48:50.116Z,2.80
2023-02-25T18:51:17.125Z,2.95
2023-02-25T18:53:44.376Z,2.63
2023-02-25T18:56:16.528Z,4.63
2023-02-25T18:58:43.332Z,3.72
2023-02-25T19:01:22.435Z,4.25
2023-02-25T19:03:50.576Z,3.15
2023-02-25T19:06:18.352Z,2.50
2023-02-25T19:08:45.234Z,3.00
2023-02-25T19:11:25.200Z,2.80
2023-02-25T19:13:52.904Z,3.17
2023-02-25T19:16:19.750Z,2.80
2023-02-25T19:18:47.257Z,2.85
2023-02-25T19:21:18.917Z,2.50
2023-02-25T19:23:46.458Z,2.88
2023-02-25T19:26:13.828Z,2.45
2023-02-25T19:28:40.662Z,2.40
2023-02-25T19:31:08.650Z,2.80
2023-02-25T19:33:35.572Z,2.67
2023-02-25T19:36:03.948Z,2.30
2023-02-25T19:38:30.833Z,2.97
2023-02-25T19:41:02.690Z,2.50
2023-02-25T19:43:31.592Z,2.53
2023-02-25T19:45:58.584Z,2.65
2023-02-25T19:48:25.392Z,2.30
2023-02-25T19:50:52.310Z,2.25
2023-02-25T19:53:19.168Z,2.30
2023-02-25T19:55:46.023Z,2.30
2023-02-25T19:58:12.880Z,2.20
2023-02-25T20:00:39.800Z,2.47
2023-02-25T20:03:06.604Z,2.20
2023-02-25T20:05:34.295Z,2.67
2023-02-25T20:08:01.043Z,2.33
2023-02-25T20:10:27.859Z,2.50
2023-02-25T20:12:55.045Z,2.60
2023-02-25T20:15:21.872Z,2.13
2023-02-25T20:17:48.662Z,2.13
2023-02-25T20:20:16.213Z,2.20
2023-02-25T20:22:44.984Z,3.97
2023-02-25T20:25:15.232Z,13.63
2023-02-25T20:27:42.537Z,2.67
2023-02-25T20:30:15.820Z,2.10
2023-02-25T20:32:44.296Z,2.03
2023-02-25T20:35:19.777Z,2.35
2023-02-25T20:38:16.608Z,2.00
2023-02-25T20:40:43.431Z,2.55
2023-02-25T20:43:11.186Z,2.78
2023-02-25T20:45:38.605Z,2.60
2023-02-25T20:48:05.683Z,2.45
2023-02-25T20:50:32.990Z,2.03
2023-02-25T20:52:59.936Z,2.50
2023-02-25T20:55:27.132Z,2.80
2023-02-25T20:57:54.249Z,2.50
2023-02-25T21:00:21.128Z,2.38
2023-02-25T21:02:48.269Z,2.80
2023-02-25T21:05:15.430Z,2.10
2023-02-25T21:07:42.268Z,2.22
2023-02-25T21:10:10.338Z,2.20
2023-02-25T21:12:37.173Z,2.35
2023-02-25T21:15:04.279Z,2.50
2023-02-25T21:17:31.031Z,2.58
2023-02-25T21:19:57.802Z,2.30
2023-02-25T21:22:25.058Z,2.13
2023-02-25T21:24:51.797Z,2.80
2023-02-25T21:27:18.627Z,2.78
2023-02-25T21:29:45.479Z,2.25
2023-02-25T21:32:12.354Z,2.67
2023-02-25T21:34:39.161Z,2.55
2023-02-25T21:37:06.365Z,2.83
2023-02-25T21:39:33.261Z,2.45
2023-02-25T21:42:00.148Z,3.33
2023-02-25T21:44:26.979Z,3.05
2023-02-25T21:46:53.768Z,2.90
2023-02-25T21:49:20.584Z,2.20
2023-02-25T21:51:47.411Z,3.00
2023-02-25T21:54:16.503Z,2.60
2023-02-25T21:56:43.889Z,2.28
2023-02-25T21:59:10.946Z,2.78
2023-02-25T22:01:40.756Z,2.67
2023-02-25T22:04:08.736Z,2.45
2023-02-25T22:06:36.445Z,2.40
2023-02-25T22:09:04.208Z,7.95
2023-02-25T22:11:34.173Z,19.05
2023-02-25T22:14:02.671Z,3.67
2023-02-25T22:16:29.724Z,2.80
2023-02-25T22:18:57.011Z,2.53
2023-02-25T22:21:30.283Z,2.65
2023-02-25T22:24:01.111Z,2.63
2023-02-25T22:26:30.858Z,2.90
2023-02-25T22:29:09.253Z,2.20
2023-02-25T22:31:36.745Z,2.58
2023-02-25T22:34:03.936Z,2.53
2023-02-25T22:36:33.120Z,2.55
2023-02-25T22:39:03.243Z,3.20
2023-02-25T22:41:30.320Z,2.38
2023-02-25T22:44:01.165Z,2.47
2023-02-25T22:46:29.972Z,2.60
2023-02-25T22:48:57.240Z,2.72
2023-02-25T22:51:26.428Z,2.30
2023-02-25T22:53:54.170Z,2.38
2023-02-25T22:56:21.680Z,2.30
2023-02-25T22:58:48.825Z,3.08
2023-02-25T23:01:18.271Z,2.33
2023-02-25T23:03:46.365Z,2.80
2023-02-25T23:06:15.952Z,2.20
2023-02-25T23:08:43.335Z,2.60
2023-02-25T23:11:20.880Z,2.38
2023-02-25T23:13:49.885Z,2.95
2023-02-25T23:16:23.605Z,2.60
2023-02-25T23:18:51.760Z,2.95
2023-02-25T23:21:20.294Z,2.30
2023-02-25T23:23:53.958Z,2.33
2023-02-25T23:26:27.138Z,2.45
2023-02-25T23:28:59.198Z,2.53
2023-02-25T23:31:29.130Z,2.50
2023-02-25T23:33:57.852Z,2.03
2023-02-25T23:36:26.198Z,2.40
2023-02-25T23:38:59.731Z,2.63
2023-02-25T23:41:27.378Z,2.40
2023-02-25T23:43:56.900Z,2.83
2023-02-25T23:46:26.435Z,2.67
2023-02-25T23:48:58.710Z,2.30
2023-02-25T23:51:26.853Z,2.00
2023-02-25T23:53:55.477Z,2.50
2023-02-25T23:56:23.316Z,2.28
2023-02-25T23:58:51.422Z,1.95
